sensor_id;sensor_type;location;lat;lon;timestamp;P1;durP1;ratioP1;P2;durP2;ratioP2
7365;SDS011;3723;52.220;8.792;2023-08-06T00:01:48;28.17;;;3.30;;
7365;SDS011;3723;52.220;8.792;2023-08-06T00:04:15;29.53;;;4.03;;
7365;SDS011;3723;52.220;8.792;2023-08-06T00:06:43;31.23;;;3.87;;
7365;SDS011;3723;52.220;8.792;2023-08-06T00:09:18;27.83;;;2.67;;
7365;SDS011;3723;52.220;8.792;2023-08-06T00:11:45;27.47;;;2.80;;
7365;SDS011;3723;52.220;8.792;2023-08-06T00:14:16;28.57;;;3.30;;
7365;SDS011;3723;52.220;8.792;2023-08-06T00:16:43;28.90;;;2.73;;
7365;SDS011;3723;52.220;8.792;2023-08-06T00:19:11;28.80;;;3.60;;
7365;SDS011;3723;52.220;8.792;2023-08-06T00:21:40;27.83;;;2.60;;
7365;SDS011;3723;52.220;8.792;2023-08-06T00:24:08;28.43;;;3.23;;
7365;SDS011;3723;52.220;8.792;2023-08-06T00:26:35;27.87;;;3.40;;
7365;SDS011;3723;52.220;8.792;2023-08-06T00:29:02;27.43;;;2.97;;
7365;SDS011;3723;52.220;8.792;2023-08-06T00:31:29;27.27;;;2.80;;
7365;SDS011;3723;52.220;8.792;2023-08-06T00:33:56;27.90;;;3.10;;
7365;SDS011;3723;52.220;8.792;2023-08-06T00:36:23;28.03;;;3.10;;
7365;SDS011;3723;52.220;8.792;2023-08-06T00:38:49;27.60;;;2.97;;
7365;SDS011;3723;52.220;8.792;2023-08-06T00:41:18;27.90;;;3.40;;
7365;SDS011;3723;52.220;8.792;2023-08-06T00:43:45;29.33;;;3.50;;
7365;SDS011;3723;52.220;8.792;2023-08-06T00:46:13;29.60;;;4.80;;
7365;SDS011;3723;52.220;8.792;2023-08-06T00:48:40;31.20;;;4.70;;
7365;SDS011;3723;52.220;8.792;2023-08-06T00:51:09;27.40;;;3.37;;
7365;SDS011;3723;52.220;8.792;2023-08-06T00:53:37;29.00;;;3.90;;
7365;SDS011;3723;52.220;8.792;2023-08-06T00:56:06;30.27;;;4.50;;
7365;SDS011;3723;52.220;8.792;2023-08-06T00:58:38;29.37;;;4.40;;
7365;SDS011;3723;52.220;8.792;2023-08-06T01:01:07;32.67;;;4.20;;
7365;SDS011;3723;52.220;8.792;2023-08-06T01:03:34;28.70;;;3.77;;
7365;SDS011;3723;52.220;8.792;2023-08-06T01:06:15;28.07;;;3.53;;
7365;SDS011;3723;52.220;8.792;2023-08-06T01:08:47;27.40;;;3.80;;
7365;SDS011;3723;52.220;8.792;2023-08-06T01:11:29;29.80;;;4.00;;
7365;SDS011;3723;52.220;8.792;2023-08-06T01:14:06;29.37;;;3.53;;
7365;SDS011;3723;52.220;8.792;2023-08-06T01:16:39;27.60;;;3.17;;
7365;SDS011;3723;52.220;8.792;2023-08-06T01:19:15;28.10;;;3.43;;
7365;SDS011;3723;52.220;8.792;2023-08-06T01:21:44;28.20;;;3.47;;
7365;SDS011;3723;52.220;8.792;2023-08-06T01:24:11;27.90;;;3.53;;
7365;SDS011;3723;52.220;8.792;2023-08-06T01:26:42;29.83;;;3.73;;
7365;SDS011;3723;52.220;8.792;2023-08-06T01:29:15;25.93;;;2.77;;
7365;SDS011;3723;52.220;8.792;2023-08-06T01:31:48;27.27;;;2.57;;
7365;SDS011;3723;52.220;8.792;2023-08-06T01:34:20;30.77;;;3.80;;
7365;SDS011;3723;52.220;8.792;2023-08-06T01:36:51;27.40;;;2.93;;
7365;SDS011;3723;52.220;8.792;2023-08-06T01:42:15;27.33;;;3.07;;
7365;SDS011;3723;52.220;8.792;2023-08-06T01:44:50;26.10;;;2.80;;
7365;SDS011;3723;52.220;8.792;2023-08-06T01:47:17;28.27;;;2.60;;
7365;SDS011;3723;52.220;8.792;2023-08-06T01:49:45;28.00;;;3.03;;
7365;SDS011;3723;52.220;8.792;2023-08-06T01:52:28;26.67;;;2.83;;
7365;SDS011;3723;52.220;8.792;2023-08-06T01:54:55;28.50;;;3.73;;
7365;SDS011;3723;52.220;8.792;2023-08-06T01:57:22;26.80;;;3.00;;
7365;SDS011;3723;52.220;8.792;2023-08-06T01:59:55;27.73;;;3.33;;
7365;SDS011;3723;52.220;8.792;2023-08-06T02:02:23;26.87;;;3.03;;
7365;SDS011;3723;52.220;8.792;2023-08-06T02:04:53;28.03;;;3.03;;
7365;SDS011;3723;52.220;8.792;2023-08-06T02:07:20;29.70;;;3.57;;
7365;SDS011;3723;52.220;8.792;2023-08-06T02:09:48;28.37;;;3.50;;
7365;SDS011;3723;52.220;8.792;2023-08-06T02:12:16;30.33;;;2.73;;
7365;SDS011;3723;52.220;8.792;2023-08-06T02:14:43;27.47;;;3.13;;
7365;SDS011;3723;52.220;8.792;2023-08-06T02:17:10;26.60;;;2.40;;
7365;SDS011;3723;52.220;8.792;2023-08-06T02:19:42;26.90;;;2.60;;
7365;SDS011;3723;52.220;8.792;2023-08-06T02:22:10;28.33;;;2.87;;
7365;SDS011;3723;52.220;8.792;2023-08-06T02:24:37;27.70;;;3.17;;
7365;SDS011;3723;52.220;8.792;2023-08-06T02:27:06;26.27;;;2.27;;
7365;SDS011;3723;52.220;8.792;2023-08-06T02:29:33;29.17;;;3.93;;
7365;SDS011;3723;52.220;8.792;2023-08-06T02:32:06;26.63;;;2.07;;
7365;SDS011;3723;52.220;8.792;2023-08-06T02:34:35;27.73;;;2.50;;
7365;SDS011;3723;52.220;8.792;2023-08-06T02:37:02;26.90;;;1.87;;
7365;SDS011;3723;52.220;8.792;2023-08-06T02:39:30;27.47;;;2.70;;
7365;SDS011;3723;52.220;8.792;2023-08-06T02:41:58;29.30;;;3.00;;
7365;SDS011;3723;52.220;8.792;2023-08-06T02:44:32;27.23;;;2.53;;
7365;SDS011;3723;52.220;8.792;2023-08-06T02:46:59;27.30;;;3.13;;
7365;SDS011;3723;52.220;8.792;2023-08-06T02:49:26;29.40;;;3.20;;
7365;SDS011;3723;52.220;8.792;2023-08-06T02:51:55;27.23;;;3.23;;
7365;SDS011;3723;52.220;8.792;2023-08-06T02:54:24;27.60;;;2.93;;
7365;SDS011;3723;52.220;8.792;2023-08-06T02:56:52;28.63;;;3.53;;
7365;SDS011;3723;52.220;8.792;2023-08-06T02:59:19;27.20;;;3.30;;
7365;SDS011;3723;52.220;8.792;2023-08-06T03:01:47;27.80;;;2.37;;
7365;SDS011;3723;52.220;8.792;2023-08-06T03:04:14;26.70;;;2.57;;
7365;SDS011;3723;52.220;8.792;2023-08-06T03:06:46;30.20;;;3.30;;
7365;SDS011;3723;52.220;8.792;2023-08-06T03:09:16;26.27;;;2.50;;
7365;SDS011;3723;52.220;8.792;2023-08-06T03:11:43;26.90;;;2.70;;
7365;SDS011;3723;52.220;8.792;2023-08-06T03:14:10;26.50;;;2.33;;
7365;SDS011;3723;52.220;8.792;2023-08-06T03:16:43;26.57;;;2.33;;
7365;SDS011;3723;52.220;8.792;2023-08-06T03:19:15;25.20;;;2.47;;
7365;SDS011;3723;52.220;8.792;2023-08-06T03:21:42;25.07;;;2.17;;
7365;SDS011;3723;52.220;8.792;2023-08-06T03:24:20;25.63;;;2.23;;
7365;SDS011;3723;52.220;8.792;2023-08-06T03:26:47;25.40;;;2.07;;
7365;SDS011;3723;52.220;8.792;2023-08-06T03:29:14;26.00;;;2.63;;
7365;SDS011;3723;52.220;8.792;2023-08-06T03:31:41;27.10;;;3.07;;
7365;SDS011;3723;52.220;8.792;2023-08-06T03:34:09;27.40;;;3.03;;
7365;SDS011;3723;52.220;8.792;2023-08-06T03:36:36;25.67;;;3.07;;
7365;SDS011;3723;52.220;8.792;2023-08-06T03:39:03;24.73;;;2.40;;
7365;SDS011;3723;52.220;8.792;2023-08-06T03:41:35;24.07;;;1.87;;
7365;SDS011;3723;52.220;8.792;2023-08-06T03:44:02;24.50;;;1.77;;
7365;SDS011;3723;52.220;8.792;2023-08-06T03:46:29;26.20;;;2.90;;
7365;SDS011;3723;52.220;8.792;2023-08-06T03:48:58;25.73;;;2.60;;
7365;SDS011;3723;52.220;8.792;2023-08-06T03:51:27;25.33;;;2.40;;
7365;SDS011;3723;52.220;8.792;2023-08-06T03:53:53;24.30;;;1.93;;
7365;SDS011;3723;52.220;8.792;2023-08-06T03:56:20;26.97;;;2.50;;
7365;SDS011;3723;52.220;8.792;2023-08-06T03:58:51;25.60;;;2.30;;
7365;SDS011;3723;52.220;8.792;2023-08-06T04:01:18;25.23;;;2.40;;
7365;SDS011;3723;52.220;8.792;2023-08-06T04:03:45;25.30;;;2.40;;
7365;SDS011;3723;52.220;8.792;2023-08-06T04:06:22;25.57;;;2.47;;
7365;SDS011;3723;52.220;8.792;2023-08-06T04:08:50;24.90;;;3.03;;
7365;SDS011;3723;52.220;8.792;2023-08-06T04:11:17;27.37;;;2.70;;
7365;SDS011;3723;52.220;8.792;2023-08-06T04:13:44;24.30;;;2.00;;
7365;SDS011;3723;52.220;8.792;2023-08-06T04:16:11;27.60;;;3.50;;
7365;SDS011;3723;52.220;8.792;2023-08-06T04:18:39;25.70;;;2.83;;
7365;SDS011;3723;52.220;8.792;2023-08-06T04:21:06;26.60;;;2.93;;
7365;SDS011;3723;52.220;8.792;2023-08-06T04:23:35;25.00;;;3.00;;
7365;SDS011;3723;52.220;8.792;2023-08-06T04:26:03;25.13;;;2.43;;
7365;SDS011;3723;52.220;8.792;2023-08-06T04:28:34;23.57;;;2.20;;
7365;SDS011;3723;52.220;8.792;2023-08-06T04:31:01;26.67;;;2.70;;
7365;SDS011;3723;52.220;8.792;2023-08-06T04:33:27;25.73;;;2.80;;
7365;SDS011;3723;52.220;8.792;2023-08-06T04:35:54;26.47;;;3.10;;
7365;SDS011;3723;52.220;8.792;2023-08-06T04:38:35;26.00;;;3.40;;
7365;SDS011;3723;52.220;8.792;2023-08-06T04:41:03;24.30;;;2.93;;
7365;SDS011;3723;52.220;8.792;2023-08-06T04:43:30;26.27;;;3.07;;
7365;SDS011;3723;52.220;8.792;2023-08-06T04:45:57;24.10;;;2.10;;
7365;SDS011;3723;52.220;8.792;2023-08-06T04:48:24;27.50;;;3.03;;
7365;SDS011;3723;52.220;8.792;2023-08-06T04:50:55;30.33;;;3.53;;
7365;SDS011;3723;52.220;8.792;2023-08-06T04:53:22;25.10;;;3.50;;
7365;SDS011;3723;52.220;8.792;2023-08-06T04:55:49;25.27;;;3.03;;
7365;SDS011;3723;52.220;8.792;2023-08-06T04:58:17;24.83;;;3.33;;
7365;SDS011;3723;52.220;8.792;2023-08-06T05:00:45;25.63;;;2.60;;
7365;SDS011;3723;52.220;8.792;2023-08-06T05:03:19;24.00;;;2.33;;
7365;SDS011;3723;52.220;8.792;2023-08-06T05:05:46;23.53;;;2.23;;
7365;SDS011;3723;52.220;8.792;2023-08-06T05:08:14;24.70;;;1.83;;
7365;SDS011;3723;52.220;8.792;2023-08-06T05:10:43;27.33;;;1.77;;
7365;SDS011;3723;52.220;8.792;2023-08-06T05:13:10;30.20;;;2.10;;
7365;SDS011;3723;52.220;8.792;2023-08-06T05:15:38;30.37;;;2.70;;
7365;SDS011;3723;52.220;8.792;2023-08-06T05:18:08;31.67;;;3.37;;
7365;SDS011;3723;52.220;8.792;2023-08-06T05:20:36;26.07;;;3.63;;
7365;SDS011;3723;52.220;8.792;2023-08-06T05:23:05;23.20;;;1.60;;
7365;SDS011;3723;52.220;8.792;2023-08-06T05:25:34;22.20;;;1.50;;
7365;SDS011;3723;52.220;8.792;2023-08-06T05:28:01;22.70;;;1.47;;
7365;SDS011;3723;52.220;8.792;2023-08-06T05:30:28;22.90;;;1.63;;
7365;SDS011;3723;52.220;8.792;2023-08-06T05:32:57;23.60;;;1.53;;
7365;SDS011;3723;52.220;8.792;2023-08-06T05:35:24;25.57;;;1.87;;
7365;SDS011;3723;52.220;8.792;2023-08-06T05:37:51;30.60;;;1.43;;
7365;SDS011;3723;52.220;8.792;2023-08-06T05:40:21;40.00;;;3.17;;
7365;SDS011;3723;52.220;8.792;2023-08-06T05:42:49;54.43;;;4.33;;
7365;SDS011;3723;52.220;8.792;2023-08-06T05:45:16;59.73;;;15.23;;
7365;SDS011;3723;52.220;8.792;2023-08-06T05:47:44;52.53;;;2.33;;
7365;SDS011;3723;52.220;8.792;2023-08-06T05:50:12;52.27;;;1.70;;
7365;SDS011;3723;52.220;8.792;2023-08-06T05:52:49;58.73;;;2.73;;
7365;SDS011;3723;52.220;8.792;2023-08-06T05:55:18;56.70;;;2.43;;
7365;SDS011;3723;52.220;8.792;2023-08-06T05:57:46;58.47;;;3.00;;
7365;SDS011;3723;52.220;8.792;2023-08-06T06:00:13;68.23;;;6.03;;
7365;SDS011;3723;52.220;8.792;2023-08-06T06:02:40;83.83;;;19.67;;
7365;SDS011;3723;52.220;8.792;2023-08-06T06:05:08;97.17;;;31.00;;
7365;SDS011;3723;52.220;8.792;2023-08-06T06:07:36;136.03;;;103.00;;
7365;SDS011;3723;52.220;8.792;2023-08-06T06:10:03;131.63;;;94.27;;
7365;SDS011;3723;52.220;8.792;2023-08-06T06:12:32;123.63;;;75.03;;
7365;SDS011;3723;52.220;8.792;2023-08-06T06:14:59;109.53;;;31.03;;
7365;SDS011;3723;52.220;8.792;2023-08-06T06:17:26;116.80;;;65.27;;
7365;SDS011;3723;52.220;8.792;2023-08-06T06:19:55;100.93;;;44.10;;
7365;SDS011;3723;52.220;8.792;2023-08-06T06:25:09;104.57;;;23.43;;
7365;SDS011;3723;52.220;8.792;2023-08-06T06:27:36;121.40;;;68.17;;
7365;SDS011;3723;52.220;8.792;2023-08-06T06:30:03;159.63;;;133.33;;
7365;SDS011;3723;52.220;8.792;2023-08-06T06:32:30;251.20;;;229.73;;
7365;SDS011;3723;52.220;8.792;2023-08-06T06:34:57;266.80;;;243.20;;
7365;SDS011;3723;52.220;8.792;2023-08-06T06:37:24;269.27;;;245.73;;
7365;SDS011;3723;52.220;8.792;2023-08-06T06:39:53;169.27;;;152.23;;
7365;SDS011;3723;52.220;8.792;2023-08-06T06:42:20;68.50;;;4.57;;
7365;SDS011;3723;52.220;8.792;2023-08-06T06:44:47;71.00;;;6.10;;
7365;SDS011;3723;52.220;8.792;2023-08-06T06:47:14;72.87;;;8.73;;
7365;SDS011;3723;52.220;8.792;2023-08-06T06:49:50;68.40;;;3.93;;
7365;SDS011;3723;52.220;8.792;2023-08-06T06:52:26;69.70;;;3.23;;
7365;SDS011;3723;52.220;8.792;2023-08-06T06:55:04;75.37;;;7.90;;
7365;SDS011;3723;52.220;8.792;2023-08-06T06:57:33;76.00;;;8.20;;
7365;SDS011;3723;52.220;8.792;2023-08-06T07:00:00;83.20;;;9.97;;
7365;SDS011;3723;52.220;8.792;2023-08-06T07:02:38;81.63;;;9.90;;
7365;SDS011;3723;52.220;8.792;2023-08-06T07:05:05;80.37;;;11.20;;
7365;SDS011;3723;52.220;8.792;2023-08-06T07:07:33;82.00;;;12.00;;
7365;SDS011;3723;52.220;8.792;2023-08-06T07:10:00;81.13;;;9.00;;
7365;SDS011;3723;52.220;8.792;2023-08-06T07:12:28;87.30;;;15.20;;
7365;SDS011;3723;52.220;8.792;2023-08-06T07:14:55;92.10;;;22.30;;
7365;SDS011;3723;52.220;8.792;2023-08-06T07:17:22;92.20;;;17.77;;
7365;SDS011;3723;52.220;8.792;2023-08-06T07:19:49;87.37;;;14.77;;
7365;SDS011;3723;52.220;8.792;2023-08-06T07:22:19;109.93;;;49.50;;
7365;SDS011;3723;52.220;8.792;2023-08-06T07:24:49;146.93;;;106.63;;
7365;SDS011;3723;52.220;8.792;2023-08-06T07:27:16;300.10;;;273.63;;
7365;SDS011;3723;52.220;8.792;2023-08-06T07:29:45;327.70;;;300.10;;
7365;SDS011;3723;52.220;8.792;2023-08-06T07:32:13;178.13;;;156.63;;
7365;SDS011;3723;52.220;8.792;2023-08-06T07:34:40;218.50;;;193.83;;
7365;SDS011;3723;52.220;8.792;2023-08-06T07:37:08;144.80;;;69.23;;
7365;SDS011;3723;52.220;8.792;2023-08-06T07:39:35;131.30;;;40.37;;
7365;SDS011;3723;52.220;8.792;2023-08-06T07:42:04;123.57;;;42.73;;
7365;SDS011;3723;52.220;8.792;2023-08-06T07:44:33;165.43;;;108.80;;
7365;SDS011;3723;52.220;8.792;2023-08-06T07:47:03;213.47;;;188.33;;
7365;SDS011;3723;52.220;8.792;2023-08-06T07:49:44;256.30;;;230.07;;
7365;SDS011;3723;52.220;8.792;2023-08-06T07:55:12;583.57;;;537.90;;
7365;SDS011;3723;52.220;8.792;2023-08-06T07:57:40;534.23;;;492.20;;
7365;SDS011;3723;52.220;8.792;2023-08-06T08:00:13;497.00;;;459.00;;
7365;SDS011;3723;52.220;8.792;2023-08-06T08:02:47;413.20;;;379.80;;
7365;SDS011;3723;52.220;8.792;2023-08-06T08:05:14;357.97;;;326.77;;
7365;SDS011;3723;52.220;8.792;2023-08-06T08:07:42;190.50;;;170.73;;
7365;SDS011;3723;52.220;8.792;2023-08-06T08:10:10;105.67;;;35.53;;
7365;SDS011;3723;52.220;8.792;2023-08-06T08:12:43;211.60;;;190.93;;
7365;SDS011;3723;52.220;8.792;2023-08-06T08:21:41;538.33;;;496.73;;
7365;SDS011;3723;52.220;8.792;2023-08-06T08:24:07;112.07;;;48.50;;
7365;SDS011;3723;52.220;8.792;2023-08-06T08:26:34;90.50;;;17.50;;
7365;SDS011;3723;52.220;8.792;2023-08-06T08:29:01;87.43;;;10.17;;
7365;SDS011;3723;52.220;8.792;2023-08-06T08:31:28;89.40;;;11.80;;
7365;SDS011;3723;52.220;8.792;2023-08-06T08:33:55;90.50;;;13.67;;
7365;SDS011;3723;52.220;8.792;2023-08-06T08:36:23;84.60;;;4.17;;
7365;SDS011;3723;52.220;8.792;2023-08-06T08:38:51;354.97;;;326.37;;
7365;SDS011;3723;52.220;8.792;2023-08-06T08:41:18;603.10;;;556.17;;
7365;SDS011;3723;52.220;8.792;2023-08-06T08:43:46;608.43;;;560.93;;
7365;SDS011;3723;52.220;8.792;2023-08-06T08:46:16;146.63;;;80.03;;
7365;SDS011;3723;52.220;8.792;2023-08-06T08:48:44;122.37;;;30.67;;
7365;SDS011;3723;52.220;8.792;2023-08-06T08:51:11;294.13;;;267.00;;
7365;SDS011;3723;52.220;8.792;2023-08-06T08:53:39;413.13;;;379.83;;
7365;SDS011;3723;52.220;8.792;2023-08-06T08:56:08;248.07;;;225.17;;
7365;SDS011;3723;52.220;8.792;2023-08-06T08:58:37;131.07;;;84.73;;
7365;SDS011;3723;52.220;8.792;2023-08-06T09:01:04;126.13;;;73.33;;
7365;SDS011;3723;52.220;8.792;2023-08-06T09:03:32;101.50;;;27.57;;
7365;SDS011;3723;52.220;8.792;2023-08-06T09:05:59;90.30;;;14.87;;
7365;SDS011;3723;52.220;8.792;2023-08-06T09:08:30;95.63;;;23.60;;
7365;SDS011;3723;52.220;8.792;2023-08-06T09:11:01;91.43;;;17.13;;
7365;SDS011;3723;52.220;8.792;2023-08-06T09:13:32;88.40;;;12.30;;
7365;SDS011;3723;52.220;8.792;2023-08-06T09:15:58;91.67;;;20.20;;
7365;SDS011;3723;52.220;8.792;2023-08-06T09:18:25;92.87;;;21.80;;
7365;SDS011;3723;52.220;8.792;2023-08-06T09:20:53;90.37;;;19.07;;
7365;SDS011;3723;52.220;8.792;2023-08-06T09:23:21;88.17;;;15.60;;
7365;SDS011;3723;52.220;8.792;2023-08-06T09:25:54;87.07;;;13.77;;
7365;SDS011;3723;52.220;8.792;2023-08-06T09:28:21;85.00;;;10.37;;
7365;SDS011;3723;52.220;8.792;2023-08-06T09:30:52;84.37;;;8.00;;
7365;SDS011;3723;52.220;8.792;2023-08-06T09:33:20;83.67;;;8.80;;
7365;SDS011;3723;52.220;8.792;2023-08-06T09:35:49;86.60;;;12.87;;
7365;SDS011;3723;52.220;8.792;2023-08-06T09:38:16;83.13;;;13.20;;
7365;SDS011;3723;52.220;8.792;2023-08-06T09:40:43;81.40;;;12.23;;
7365;SDS011;3723;52.220;8.792;2023-08-06T09:43:10;78.10;;;9.00;;
7365;SDS011;3723;52.220;8.792;2023-08-06T09:45:38;75.77;;;8.10;;
7365;SDS011;3723;52.220;8.792;2023-08-06T09:48:07;76.33;;;8.83;;
7365;SDS011;3723;52.220;8.792;2023-08-06T09:50:37;76.27;;;9.03;;
7365;SDS011;3723;52.220;8.792;2023-08-06T09:53:04;76.10;;;8.53;;
7365;SDS011;3723;52.220;8.792;2023-08-06T09:55:33;80.87;;;10.93;;
7365;SDS011;3723;52.220;8.792;2023-08-06T09:58:00;82.10;;;12.80;;
7365;SDS011;3723;52.220;8.792;2023-08-06T10:00:27;81.20;;;12.40;;
7365;SDS011;3723;52.220;8.792;2023-08-06T10:02:59;80.70;;;12.30;;
7365;SDS011;3723;52.220;8.792;2023-08-06T10:05:28;82.70;;;13.57;;
7365;SDS011;3723;52.220;8.792;2023-08-06T10:07:57;81.90;;;12.47;;
7365;SDS011;3723;52.220;8.792;2023-08-06T10:10:28;80.37;;;12.10;;
7365;SDS011;3723;52.220;8.792;2023-08-06T10:12:57;79.27;;;9.27;;
7365;SDS011;3723;52.220;8.792;2023-08-06T10:15:26;75.60;;;7.87;;
7365;SDS011;3723;52.220;8.792;2023-08-06T10:18:07;74.80;;;7.60;;
7365;SDS011;3723;52.220;8.792;2023-08-06T10:20:36;77.90;;;10.53;;
7365;SDS011;3723;52.220;8.792;2023-08-06T10:23:04;78.70;;;9.77;;
7365;SDS011;3723;52.220;8.792;2023-08-06T10:25:33;82.00;;;11.90;;
7365;SDS011;3723;52.220;8.792;2023-08-06T10:28:06;87.97;;;9.23;;
7365;SDS011;3723;52.220;8.792;2023-08-06T10:30:36;92.57;;;22.90;;
7365;SDS011;3723;52.220;8.792;2023-08-06T10:33:09;97.60;;;28.20;;
7365;SDS011;3723;52.220;8.792;2023-08-06T10:35:45;108.23;;;46.10;;
7365;SDS011;3723;52.220;8.792;2023-08-06T10:38:14;122.70;;;69.73;;
7365;SDS011;3723;52.220;8.792;2023-08-06T10:40:48;131.77;;;85.80;;
7365;SDS011;3723;52.220;8.792;2023-08-06T10:43:24;356.20;;;327.03;;
7365;SDS011;3723;52.220;8.792;2023-08-06T10:45:52;147.37;;;73.03;;
7365;SDS011;3723;52.220;8.792;2023-08-06T10:48:28;133.93;;;40.10;;
7365;SDS011;3723;52.220;8.792;2023-08-06T10:50:59;553.77;;;509.83;;
7365;SDS011;3723;52.220;8.792;2023-08-06T10:53:29;617.67;;;569.87;;
7365;SDS011;3723;52.220;8.792;2023-08-06T10:58:44;464.37;;;426.47;;
7365;SDS011;3723;52.220;8.792;2023-08-06T11:01:11;394.53;;;361.43;;
7365;SDS011;3723;52.220;8.792;2023-08-06T11:03:39;120.50;;;25.50;;
7365;SDS011;3723;52.220;8.792;2023-08-06T11:06:07;127.67;;;42.33;;
7365;SDS011;3723;52.220;8.792;2023-08-06T11:08:35;124.67;;;30.87;;
7365;SDS011;3723;52.220;8.792;2023-08-06T11:11:10;138.43;;;43.20;;
7365;SDS011;3723;52.220;8.792;2023-08-06T11:13:40;493.27;;;453.40;;
7365;SDS011;3723;52.220;8.792;2023-08-06T11:16:07;544.07;;;502.10;;
7365;SDS011;3723;52.220;8.792;2023-08-06T11:18:35;93.70;;;23.20;;
7365;SDS011;3723;52.220;8.792;2023-08-06T11:21:02;90.87;;;11.60;;
7365;SDS011;3723;52.220;8.792;2023-08-06T11:23:30;99.40;;;18.43;;
7365;SDS011;3723;52.220;8.792;2023-08-06T11:25:58;98.03;;;11.17;;
7365;SDS011;3723;52.220;8.792;2023-08-06T11:28:28;104.47;;;18.37;;
7365;SDS011;3723;52.220;8.792;2023-08-06T11:30:55;146.63;;;91.67;;
7365;SDS011;3723;52.220;8.792;2023-08-06T11:33:26;146.60;;;90.67;;
7365;SDS011;3723;52.220;8.792;2023-08-06T11:35:57;155.97;;;111.10;;
7365;SDS011;3723;52.220;8.792;2023-08-06T11:38:26;231.03;;;207.20;;
7365;SDS011;3723;52.220;8.792;2023-08-06T11:40:55;370.13;;;338.80;;
7365;SDS011;3723;52.220;8.792;2023-08-06T11:43:22;516.23;;;474.40;;
7365;SDS011;3723;52.220;8.792;2023-08-06T11:45:49;546.63;;;502.67;;
7365;SDS011;3723;52.220;8.792;2023-08-06T11:48:19;532.07;;;489.10;;
7365;SDS011;3723;52.220;8.792;2023-08-06T11:50:46;158.63;;;119.77;;
7365;SDS011;3723;52.220;8.792;2023-08-06T11:53:14;99.80;;;16.37;;
7365;SDS011;3723;52.220;8.792;2023-08-06T11:55:41;90.17;;;10.80;;
7365;SDS011;3723;52.220;8.792;2023-08-06T11:58:13;94.00;;;22.50;;
7365;SDS011;3723;52.220;8.792;2023-08-06T12:00:43;548.50;;;505.53;;
7365;SDS011;3723;52.220;8.792;2023-08-06T12:03:11;555.40;;;512.63;;
7365;SDS011;3723;52.220;8.792;2023-08-06T12:05:38;596.53;;;550.30;;
7365;SDS011;3723;52.220;8.792;2023-08-06T12:08:05;558.33;;;514.83;;
7365;SDS011;3723;52.220;8.792;2023-08-06T12:10:35;571.10;;;526.30;;
7365;SDS011;3723;52.220;8.792;2023-08-06T12:13:02;480.97;;;443.97;;
7365;SDS011;3723;52.220;8.792;2023-08-06T12:15:30;311.47;;;284.97;;
7365;SDS011;3723;52.220;8.792;2023-08-06T12:17:59;551.43;;;509.17;;
7365;SDS011;3723;52.220;8.792;2023-08-06T12:20:43;319.63;;;292.57;;
7365;SDS011;3723;52.220;8.792;2023-08-06T12:23:12;83.07;;;4.03;;
7365;SDS011;3723;52.220;8.792;2023-08-06T12:25:40;91.70;;;13.87;;
7365;SDS011;3723;52.220;8.792;2023-08-06T12:28:07;99.40;;;19.17;;
7365;SDS011;3723;52.220;8.792;2023-08-06T12:30:37;102.37;;;17.50;;
7365;SDS011;3723;52.220;8.792;2023-08-06T12:33:06;105.70;;;19.07;;
7365;SDS011;3723;52.220;8.792;2023-08-06T12:35:34;153.60;;;103.30;;
7365;SDS011;3723;52.220;8.792;2023-08-06T12:38:02;114.90;;;36.07;;
7365;SDS011;3723;52.220;8.792;2023-08-06T12:40:29;100.73;;;14.17;;
7365;SDS011;3723;52.220;8.792;2023-08-06T12:42:56;94.80;;;14.60;;
7365;SDS011;3723;52.220;8.792;2023-08-06T12:45:24;94.60;;;15.00;;
7365;SDS011;3723;52.220;8.792;2023-08-06T12:47:59;98.73;;;22.97;;
7365;SDS011;3723;52.220;8.792;2023-08-06T12:50:26;85.97;;;6.90;;
7365;SDS011;3723;52.220;8.792;2023-08-06T12:52:53;149.53;;;116.87;;
7365;SDS011;3723;52.220;8.792;2023-08-06T12:55:20;511.20;;;471.23;;
7365;SDS011;3723;52.220;8.792;2023-08-06T12:57:47;84.67;;;6.83;;
7365;SDS011;3723;52.220;8.792;2023-08-06T13:00:14;95.50;;;19.73;;
7365;SDS011;3723;52.220;8.792;2023-08-06T13:02:41;98.07;;;14.67;;
7365;SDS011;3723;52.220;8.792;2023-08-06T13:05:09;145.60;;;83.37;;
7365;SDS011;3723;52.220;8.792;2023-08-06T13:07:36;192.93;;;166.47;;
7365;SDS011;3723;52.220;8.792;2023-08-06T13:10:03;503.13;;;462.07;;
7365;SDS011;3723;52.220;8.792;2023-08-06T13:12:30;514.93;;;473.30;;
7365;SDS011;3723;52.220;8.792;2023-08-06T13:14:57;506.43;;;465.40;;
7365;SDS011;3723;52.220;8.792;2023-08-06T13:17:24;366.57;;;334.13;;
7365;SDS011;3723;52.220;8.792;2023-08-06T13:19:55;522.07;;;479.67;;
7365;SDS011;3723;52.220;8.792;2023-08-06T13:22:24;264.77;;;238.83;;
7365;SDS011;3723;52.220;8.792;2023-08-06T13:24:52;117.83;;;36.60;;
7365;SDS011;3723;52.220;8.792;2023-08-06T13:27:18;97.70;;;11.53;;
7365;SDS011;3723;52.220;8.792;2023-08-06T13:29:45;102.07;;;15.87;;
7365;SDS011;3723;52.220;8.792;2023-08-06T13:32:12;102.07;;;15.07;;
7365;SDS011;3723;52.220;8.792;2023-08-06T13:34:43;100.60;;;13.03;;
7365;SDS011;3723;52.220;8.792;2023-08-06T13:37:10;97.30;;;10.70;;
7365;SDS011;3723;52.220;8.792;2023-08-06T13:39:39;103.27;;;17.80;;
7365;SDS011;3723;52.220;8.792;2023-08-06T13:42:06;250.67;;;225.27;;
7365;SDS011;3723;52.220;8.792;2023-08-06T13:44:32;543.27;;;499.70;;
7365;SDS011;3723;52.220;8.792;2023-08-06T13:47:00;535.77;;;492.50;;
7365;SDS011;3723;52.220;8.792;2023-08-06T13:49:27;348.60;;;316.57;;
7365;SDS011;3723;52.220;8.792;2023-08-06T13:51:54;544.77;;;500.50;;
7365;SDS011;3723;52.220;8.792;2023-08-06T13:54:21;145.17;;;94.30;;
7365;SDS011;3723;52.220;8.792;2023-08-06T13:56:49;102.40;;;17.23;;
7365;SDS011;3723;52.220;8.792;2023-08-06T13:59:18;87.93;;;7.00;;
7365;SDS011;3723;52.220;8.792;2023-08-06T14:01:45;122.53;;;66.03;;
7365;SDS011;3723;52.220;8.792;2023-08-06T14:04:12;535.80;;;494.13;;
7365;SDS011;3723;52.220;8.792;2023-08-06T14:06:39;167.43;;;107.93;;
7365;SDS011;3723;52.220;8.792;2023-08-06T14:09:06;241.90;;;217.27;;
7365;SDS011;3723;52.220;8.792;2023-08-06T14:11:34;306.10;;;279.97;;
7365;SDS011;3723;52.220;8.792;2023-08-06T14:14:03;124.57;;;77.40;;
7365;SDS011;3723;52.220;8.792;2023-08-06T14:16:30;95.67;;;28.33;;
7365;SDS011;3723;52.220;8.792;2023-08-06T14:18:58;81.83;;;10.73;;
7365;SDS011;3723;52.220;8.792;2023-08-06T14:21:31;74.97;;;9.27;;
7365;SDS011;3723;52.220;8.792;2023-08-06T14:23:58;79.73;;;10.80;;
7365;SDS011;3723;52.220;8.792;2023-08-06T14:26:25;71.93;;;8.23;;
7365;SDS011;3723;52.220;8.792;2023-08-06T14:28:53;78.57;;;8.20;;
7365;SDS011;3723;52.220;8.792;2023-08-06T14:31:24;79.27;;;9.60;;
7365;SDS011;3723;52.220;8.792;2023-08-06T14:33:52;74.27;;;8.67;;
7365;SDS011;3723;52.220;8.792;2023-08-06T14:36:19;70.37;;;6.40;;
7365;SDS011;3723;52.220;8.792;2023-08-06T14:38:48;78.57;;;9.10;;
7365;SDS011;3723;52.220;8.792;2023-08-06T14:41:18;76.90;;;8.57;;
7365;SDS011;3723;52.220;8.792;2023-08-06T14:43:45;78.50;;;9.10;;
7365;SDS011;3723;52.220;8.792;2023-08-06T14:46:12;80.83;;;9.33;;
7365;SDS011;3723;52.220;8.792;2023-08-06T14:48:40;75.30;;;8.03;;
7365;SDS011;3723;52.220;8.792;2023-08-06T14:51:08;66.57;;;2.83;;
7365;SDS011;3723;52.220;8.792;2023-08-06T14:53:35;68.80;;;4.80;;
7365;SDS011;3723;52.220;8.792;2023-08-06T14:56:02;63.70;;;2.47;;
7365;SDS011;3723;52.220;8.792;2023-08-06T14:58:29;64.60;;;2.57;;
7365;SDS011;3723;52.220;8.792;2023-08-06T15:00:56;116.00;;;85.47;;
7365;SDS011;3723;52.220;8.792;2023-08-06T15:03:23;133.47;;;118.63;;
7365;SDS011;3723;52.220;8.792;2023-08-06T15:05:51;101.77;;;41.47;;
7365;SDS011;3723;52.220;8.792;2023-08-06T15:08:18;120.50;;;80.10;;
7365;SDS011;3723;52.220;8.792;2023-08-06T15:10:49;85.57;;;19.77;;
7365;SDS011;3723;52.220;8.792;2023-08-06T15:13:17;75.27;;;9.40;;
7365;SDS011;3723;52.220;8.792;2023-08-06T15:15:46;71.70;;;4.87;;